createdAt,value
2018-09-06T06:01:23.857Z,29.83
2018-09-06T06:03:56.694Z,37.83
2018-09-06T06:05:58.749Z,38.83
2018-09-06T06:08:12.405Z,38.60
2018-09-06T06:10:14.462Z,37.77
2018-09-06T06:12:16.507Z,29.00
2018-09-06T06:14:18.582Z,36.63
2018-09-06T06:16:20.638Z,27.23
2018-09-06T06:18:22.694Z,38.20
2018-09-06T06:20:24.779Z,37.20
2018-09-06T06:22:26.816Z,34.13
2018-09-06T06:24:28.853Z,37.43
2018-09-06T06:26:30.921Z,29.90
2018-09-06T06:28:33.108Z,28.73
2018-09-06T06:30:35.161Z,31.57
2018-09-06T06:32:37.224Z,27.87
2018-09-06T06:34:39.314Z,32.80
2018-09-06T06:36:41.373Z,36.80
2018-09-06T06:38:43.418Z,25.40
2018-09-06T06:40:45.507Z,45.30
2018-09-06T06:42:47.553Z,33.53
2018-09-06T06:44:49.669Z,28.77
2018-09-06T06:46:51.767Z,44.40
2018-09-06T06:48:53.834Z,26.70
2018-09-06T06:50:55.896Z,27.70
2018-09-06T06:52:57.938Z,29.33
2018-09-06T06:54:59.997Z,28.07
2018-09-06T06:57:02.032Z,34.67
2018-09-06T06:59:04.131Z,33.67
2018-09-06T07:01:06.202Z,32.80
2018-09-06T07:03:08.905Z,30.00
2018-09-06T07:05:10.946Z,27.20
2018-09-06T07:07:13.075Z,34.40
2018-09-06T07:09:15.091Z,32.00
2018-09-06T07:11:17.144Z,31.27
2018-09-06T07:13:19.194Z,30.90
2018-09-06T07:15:21.213Z,26.33
2018-09-06T07:17:23.286Z,23.63
2018-09-06T07:19:25.344Z,28.63
2018-09-06T07:21:27.429Z,30.00
2018-09-06T07:23:30.888Z,30.43
2018-09-06T07:25:32.933Z,30.30
2018-09-06T07:27:34.998Z,25.70
2018-09-06T07:29:37.040Z,25.27
2018-09-06T07:31:39.133Z,23.50
2018-09-06T07:33:41.217Z,32.17
2018-09-06T07:35:43.244Z,23.07
2018-09-06T07:37:45.310Z,32.27
2018-09-06T07:39:47.352Z,27.17
2018-09-06T07:41:49.416Z,29.97
2018-09-06T07:43:51.445Z,30.30
2018-09-06T07:45:53.505Z,27.80
2018-09-06T07:47:55.556Z,25.90
2018-09-06T07:49:57.647Z,25.63
2018-09-06T07:51:59.650Z,24.60
2018-09-06T07:54:01.710Z,23.17
2018-09-06T07:56:03.852Z,24.63
2018-09-06T07:58:05.915Z,24.70
2018-09-06T08:00:07.977Z,27.93
2018-09-06T08:02:10.036Z,28.57
2018-09-06T08:04:12.091Z,22.33
2018-09-06T08:06:14.173Z,30.23
2018-09-06T08:08:16.233Z,31.77
2018-09-06T08:10:18.342Z,24.47
2018-09-06T08:12:20.417Z,26.50
2018-09-06T08:14:22.458Z,24.17
2018-09-06T08:16:24.522Z,24.03
2018-09-06T08:18:26.593Z,19.60
2018-09-06T08:20:28.666Z,23.63
2018-09-06T08:22:30.729Z,26.93
2018-09-06T08:24:32.805Z,21.17
2018-09-06T08:26:34.868Z,25.40
2018-09-06T08:28:36.925Z,22.63
2018-09-06T08:30:39.006Z,25.93
2018-09-06T08:32:41.033Z,22.97
2018-09-06T08:34:43.094Z,29.20
2018-09-06T08:36:45.302Z,24.17
2018-09-06T08:38:47.745Z,19.80
2018-09-06T08:40:49.793Z,21.20
2018-09-06T08:42:51.833Z,20.30
2018-09-06T08:44:53.919Z,20.93
2018-09-06T08:46:55.980Z,21.90
2018-09-06T08:48:58.090Z,22.53
2018-09-06T08:51:00.189Z,18.30
2018-09-06T08:53:02.273Z,19.83
2018-09-06T08:55:04.397Z,19.03
2018-09-06T08:57:06.445Z,19.80
2018-09-06T08:59:08.576Z,16.87
2018-09-06T09:01:16.505Z,21.87
2018-09-06T09:03:18.617Z,25.23
2018-09-06T09:05:20.613Z,22.63
2018-09-06T09:07:22.709Z,19.50
2018-09-06T09:09:24.741Z,25.33
2018-09-06T09:11:26.818Z,21.07
2018-09-06T09:13:28.874Z,28.07
2018-09-06T09:15:30.957Z,22.70
2018-09-06T09:17:33.013Z,20.77
2018-09-06T09:19:35.096Z,19.03
2018-09-06T09:21:37.325Z,17.63
2018-09-06T09:23:39.240Z,16.60
2018-09-06T09:25:41.289Z,21.70
2018-09-06T09:27:44.025Z,14.30
2018-09-06T09:29:46.082Z,29.87
2018-09-06T09:31:48.129Z,27.80
2018-09-06T09:33:50.225Z,17.27
2018-09-06T09:35:52.330Z,22.23
2018-09-06T09:37:54.359Z,19.10
2018-09-06T09:39:56.429Z,22.63
2018-09-06T09:41:58.477Z,16.43
2018-09-06T09:44:00.533Z,26.43
2018-09-06T09:48:04.244Z,21.73
2018-09-06T09:50:06.271Z,20.23
2018-09-06T09:52:08.337Z,16.00
2018-09-06T09:54:10.466Z,28.00
2018-09-06T09:56:12.549Z,21.33
2018-09-06T09:58:14.621Z,16.43
2018-09-06T10:00:21.313Z,24.63
2018-09-06T10:02:29.060Z,18.83
2018-09-06T10:04:38.138Z,17.83
2018-09-06T10:06:46.152Z,18.37
2018-09-06T10:08:54.572Z,18.47
2018-09-06T10:10:56.589Z,17.90
2018-09-06T10:12:58.634Z,17.93
2018-09-06T10:15:00.671Z,18.60
2018-09-06T10:17:02.721Z,28.67
2018-09-06T10:19:04.784Z,17.67
2018-09-06T10:21:06.869Z,25.70
2018-09-06T10:23:08.957Z,22.60
2018-09-06T10:25:11.049Z,17.43
2018-09-06T10:27:13.153Z,16.07
2018-09-06T10:29:15.242Z,15.27
2018-09-06T10:31:17.316Z,23.03
2018-09-06T10:33:19.388Z,21.00
2018-09-06T10:35:21.499Z,17.27
2018-09-06T10:37:23.728Z,20.03
2018-09-06T10:39:25.850Z,18.13
2018-09-06T10:41:27.853Z,16.20
2018-09-06T10:43:29.890Z,14.57
2018-09-06T10:45:31.940Z,13.90
2018-09-06T10:47:34.100Z,13.43
2018-09-06T10:49:36.230Z,14.43
2018-09-06T10:51:38.303Z,14.20
2018-09-06T10:53:40.341Z,18.47
2018-09-06T10:55:42.468Z,21.43
2018-09-06T10:57:44.513Z,15.53
2018-09-06T10:59:46.605Z,24.10
2018-09-06T11:01:48.661Z,16.47
2018-09-06T11:03:52.642Z,13.80
2018-09-06T11:05:54.737Z,11.10
2018-09-06T11:07:56.893Z,14.20
2018-09-06T11:09:58.929Z,14.90
2018-09-06T11:12:00.970Z,14.50
2018-09-06T11:14:03.024Z,17.17
2018-09-06T11:16:05.127Z,19.83
2018-09-06T11:18:07.276Z,11.40
2018-09-06T11:20:09.260Z,12.03
2018-09-06T11:22:11.496Z,12.17
2018-09-06T11:24:13.367Z,11.83
2018-09-06T11:26:15.417Z,21.00
2018-09-06T11:28:17.469Z,12.60
2018-09-06T11:30:19.533Z,14.60
2018-09-06T11:32:21.573Z,18.90
2018-09-06T11:34:23.700Z,12.10
2018-09-06T11:36:25.828Z,14.07
2018-09-06T11:38:27.885Z,16.40
2018-09-06T11:40:30.020Z,14.20
2018-09-06T11:42:32.070Z,19.63
2018-09-06T11:44:34.142Z,11.90
2018-09-06T11:46:36.462Z,18.60
2018-09-06T11:48:38.498Z,17.93
2018-09-06T11:50:40.634Z,14.90
2018-09-06T11:52:42.706Z,10.93
2018-09-06T11:54:44.977Z,23.20
2018-09-06T13:31:36.203Z,17.13
2018-09-06T13:33:38.357Z,15.30
2018-09-06T13:35:40.521Z,16.90
2018-09-06T13:37:42.573Z,22.00
2018-09-06T13:39:44.672Z,38.27
2018-09-06T13:41:46.741Z,62.60
2018-09-06T13:43:48.797Z,61.73
2018-09-06T13:45:50.844Z,89.53
2018-09-06T13:47:52.892Z,69.43
2018-09-06T13:49:54.921Z,71.37
2018-09-06T13:51:56.989Z,56.00
2018-09-06T13:53:59.097Z,49.10
2018-09-06T13:56:01.273Z,61.73
2018-09-06T13:58:03.338Z,43.53
2018-09-06T14:00:05.469Z,41.33
2018-09-06T14:02:07.461Z,42.17
2018-09-06T14:04:09.517Z,57.60
2018-09-06T14:06:11.646Z,46.50
2018-09-06T14:08:13.732Z,43.83
2018-09-06T14:10:15.776Z,34.37
2018-09-06T14:12:17.839Z,46.57
2018-09-06T14:14:19.913Z,37.50
2018-09-06T14:16:21.978Z,39.83
2018-09-06T14:18:24.061Z,44.33
2018-09-06T14:20:26.094Z,45.30
2018-09-06T14:22:28.184Z,38.83
2018-09-06T14:24:47.164Z,39.00
2018-09-06T14:27:09.104Z,42.90
2018-09-06T14:34:01.288Z,41.60
2018-09-06T14:36:05.538Z,42.70
2018-09-06T14:38:09.444Z,41.13
2018-09-06T14:40:14.761Z,42.40
2018-09-06T14:42:19.483Z,41.80
2018-09-06T14:44:23.867Z,37.13
2018-09-06T14:46:30.724Z,38.50
2018-09-06T14:48:34.690Z,45.13
2018-09-06T14:50:44.453Z,44.40
2018-09-06T14:52:51.111Z,41.10
2018-09-06T14:54:57.169Z,44.33
2018-09-06T14:57:06.510Z,41.33
2018-09-06T14:59:18.506Z,43.10
2018-09-06T15:01:32.026Z,48.37
2018-09-06T15:03:37.185Z,41.17
2018-09-06T15:05:45.382Z,40.83
2018-09-06T15:07:54.855Z,46.20
2018-09-06T15:09:58.712Z,43.63
2018-09-06T15:12:08.554Z,41.20
2018-09-06T15:14:14.571Z,41.07
2018-09-06T15:16:20.575Z,39.87
2018-09-06T15:18:30.217Z,47.80
2018-09-06T15:20:35.246Z,41.10
2018-09-06T15:22:40.970Z,36.77
2018-09-06T15:24:47.704Z,56.70
2018-09-06T15:26:58.764Z,39.27
2018-09-06T15:29:05.093Z,42.33
2018-09-06T15:31:12.118Z,38.60
2018-09-06T15:33:18.192Z,40.30
2018-09-06T15:35:23.945Z,49.07
2018-09-06T15:37:27.755Z,53.13
2018-09-06T15:39:37.549Z,40.83
2018-09-06T15:41:43.475Z,46.13
2018-09-06T15:43:52.237Z,39.07
2018-09-06T15:45:59.951Z,40.30
2018-09-06T15:48:04.700Z,42.50
2018-09-06T15:52:23.390Z,36.20
2018-09-06T15:54:28.112Z,37.80
2018-09-06T15:56:38.078Z,44.13
2018-09-06T15:58:44.661Z,42.17
2018-09-06T16:00:51.705Z,41.13
2018-09-06T16:02:57.272Z,42.87
2018-09-06T16:05:06.371Z,49.80
2018-09-06T16:07:10.692Z,37.30
2018-09-06T16:09:18.422Z,40.70
2018-09-06T16:11:22.117Z,42.77
2018-09-06T16:13:30.028Z,39.40
2018-09-06T16:15:35.595Z,44.97
2018-09-06T16:17:41.038Z,34.10
2018-09-06T16:19:46.253Z,40.50
2018-09-06T16:21:50.728Z,40.07
2018-09-06T16:23:58.188Z,38.77
2018-09-06T16:26:03.240Z,45.57
2018-09-06T16:28:07.923Z,39.37
2018-09-06T16:30:13.898Z,42.13
2018-09-06T16:32:23.674Z,40.13
2018-09-06T16:34:29.127Z,50.83
2018-09-06T16:36:34.018Z,36.97
2018-09-06T16:38:42.676Z,38.63
2018-09-06T16:40:46.550Z,38.13
2018-09-06T16:42:51.702Z,40.83
2018-09-06T16:45:01.530Z,42.23
2018-09-06T16:47:06.973Z,42.20
2018-09-06T16:49:11.649Z,39.73
2018-09-06T16:51:13.873Z,39.23
2018-09-06T16:53:15.974Z,53.47
2018-09-06T16:55:18.102Z,38.10
2018-09-06T16:57:20.221Z,38.87
2018-09-06T16:59:22.279Z,36.90
2018-09-06T17:01:24.329Z,46.27
2018-09-06T17:03:26.397Z,35.50
2018-09-06T17:05:28.447Z,38.50
2018-09-06T17:07:30.520Z,43.60
2018-09-06T17:09:32.617Z,38.60
2018-09-06T17:11:34.997Z,40.90
2018-09-06T17:13:37.053Z,36.90
2018-09-06T17:15:39.132Z,40.17
2018-09-06T17:17:41.641Z,34.13
2018-09-06T17:19:43.772Z,36.77
2018-09-06T17:21:45.817Z,37.73
2018-09-06T17:23:48.598Z,38.20
2018-09-06T17:25:50.657Z,34.30
2018-09-06T17:27:52.735Z,38.80
2018-09-06T17:29:54.816Z,38.63
2018-09-06T17:31:56.857Z,40.90
2018-09-06T17:33:58.978Z,40.00
2018-09-06T17:36:00.980Z,41.30
2018-09-06T17:38:03.010Z,35.37
2018-09-06T17:40:05.067Z,39.00
2018-09-06T17:42:07.134Z,35.60
2018-09-06T17:44:09.192Z,44.13
2018-09-06T17:46:11.245Z,36.30
2018-09-06T17:48:13.289Z,35.00
2018-09-06T17:50:15.366Z,41.50
2018-09-06T17:52:17.422Z,39.57
2018-09-06T17:54:19.485Z,39.00
2018-09-06T17:56:21.528Z,49.83
2018-09-06T17:58:23.582Z,45.77
2018-09-06T18:00:25.713Z,35.80
2018-09-06T18:02:27.770Z,49.33
2018-09-06T18:04:29.825Z,37.93
2018-09-06T18:06:31.876Z,43.30
2018-09-06T18:08:33.949Z,44.50
2018-09-06T18:10:36.013Z,41.10
2018-09-06T18:12:38.070Z,39.77
2018-09-06T18:14:40.129Z,41.40
2018-09-06T18:16:42.225Z,52.10
2018-09-06T18:18:44.288Z,46.33
2018-09-06T18:20:46.361Z,41.43
2018-09-06T18:22:48.412Z,41.40
2018-09-06T18:24:50.461Z,51.63
2018-09-06T18:26:52.525Z,43.83
2018-09-06T18:28:54.606Z,45.43
2018-09-06T18:30:56.686Z,45.43
2018-09-06T18:32:58.749Z,52.03
2018-09-06T18:35:00.800Z,46.43
2018-09-06T18:37:02.843Z,44.93
2018-09-06T18:39:05.650Z,54.13
2018-09-06T18:41:21.091Z,57.77
2018-09-06T18:43:25.791Z,43.43
2018-09-06T18:45:30.348Z,46.63
2018-09-06T18:47:34.708Z,48.57
2018-09-06T18:49:40.073Z,46.17
2018-09-06T18:51:43.621Z,52.83
2018-09-06T18:53:48.385Z,41.00
2018-09-06T18:55:53.196Z,43.97
2018-09-06T18:57:59.025Z,50.10
2018-09-06T19:00:03.662Z,56.20
2018-09-06T19:02:08.830Z,44.20
2018-09-06T19:04:13.585Z,53.33
2018-09-06T19:06:18.043Z,49.80
2018-09-06T19:08:22.517Z,52.60
2018-09-06T19:10:26.909Z,46.80
2018-09-06T19:12:32.869Z,47.87
2018-09-06T19:14:38.108Z,52.83
2018-09-06T19:16:45.958Z,51.97
2018-09-06T19:18:49.772Z,53.83
2018-09-06T19:20:56.445Z,52.23
2018-09-06T19:23:02.431Z,49.87
2018-09-06T19:25:08.094Z,45.00
2018-09-06T19:27:12.601Z,53.00
2018-09-06T19:29:19.275Z,55.63
2018-09-06T19:31:23.841Z,50.10
2018-09-06T19:33:27.976Z,51.23
2018-09-06T19:35:34.541Z,62.33
2018-09-06T19:37:42.135Z,54.10
2018-09-06T19:39:47.557Z,57.73
2018-09-06T19:41:49.899Z,59.10
2018-09-06T19:43:52.013Z,50.03
2018-09-06T19:45:54.099Z,53.00
2018-09-06T19:47:56.153Z,52.20
2018-09-06T19:49:58.229Z,55.13
2018-09-06T19:52:00.313Z,48.83
2018-09-06T19:54:02.396Z,55.53
2018-09-06T19:56:04.482Z,52.13
2018-09-06T19:58:06.553Z,61.23
2018-09-06T20:00:08.686Z,54.73
2018-09-06T20:02:10.737Z,50.83
2018-09-06T20:04:12.789Z,47.30
2018-09-06T20:06:14.840Z,53.07
2018-09-06T20:08:16.965Z,53.73
2018-09-06T20:10:19.001Z,56.77
2018-09-06T20:12:21.085Z,49.63
2018-09-06T20:14:23.199Z,55.10
2018-09-06T20:16:25.240Z,48.27
2018-09-06T20:18:27.321Z,47.67
2018-09-06T20:20:29.415Z,50.03
2018-09-06T20:22:31.482Z,48.30
2018-09-06T20:24:33.581Z,45.90
2018-09-06T20:26:35.662Z,48.70
2018-09-06T20:28:37.793Z,45.37
2018-09-06T20:30:39.783Z,56.33
2018-09-06T20:32:41.846Z,54.07
2018-09-06T20:34:43.913Z,53.80
2018-09-06T20:36:45.993Z,55.87
2018-09-06T20:38:48.037Z,63.73
2018-09-06T20:40:50.121Z,63.80
2018-09-06T20:42:52.186Z,60.37
2018-09-06T20:44:54.250Z,54.73
2018-09-06T20:46:56.287Z,54.30
2018-09-06T20:48:58.345Z,54.87
2018-09-06T20:51:00.413Z,57.70
2018-09-06T20:53:02.453Z,59.30
2018-09-06T20:55:04.533Z,68.03
2018-09-06T20:57:06.612Z,57.03
2018-09-06T20:59:08.717Z,71.97
2018-09-06T21:01:10.766Z,69.10
2018-09-06T21:03:12.982Z,57.40
2018-09-06T21:05:15.018Z,59.63
2018-09-06T21:07:17.137Z,69.00
2018-09-06T21:09:19.173Z,57.97
2018-09-06T21:11:21.252Z,61.70
2018-09-06T21:13:23.328Z,56.63
2018-09-06T21:15:25.413Z,57.70
2018-09-06T21:17:27.448Z,62.47
2018-09-06T21:19:29.491Z,54.43
2018-09-06T21:21:31.545Z,58.10
2018-09-06T21:23:33.632Z,61.90
2018-09-06T21:25:35.657Z,57.00
2018-09-06T21:27:37.713Z,66.60
2018-09-06T21:29:39.760Z,61.43
2018-09-06T21:31:41.801Z,59.53
2018-09-06T21:33:43.872Z,56.97
2018-09-06T21:35:45.926Z,59.87
2018-09-06T21:37:47.993Z,65.37
2018-09-06T21:39:50.051Z,54.23
2018-09-06T21:41:52.105Z,54.10
2018-09-06T21:43:54.193Z,51.93
2018-09-06T21:45:56.236Z,63.67
2018-09-06T21:47:58.289Z,71.03
2018-09-06T21:50:00.350Z,57.73
2018-09-06T21:52:02.411Z,65.23
2018-09-06T21:54:04.462Z,55.43
2018-09-06T21:56:06.560Z,59.33
2018-09-06T21:58:08.609Z,66.50
2018-09-06T22:00:10.704Z,66.20
2018-09-06T22:02:18.510Z,60.77
2018-09-06T22:04:20.566Z,63.73
2018-09-06T22:06:22.665Z,66.40
2018-09-06T22:08:24.880Z,60.00
2018-09-06T22:10:26.929Z,64.40
2018-09-06T22:12:28.997Z,58.20
2018-09-06T22:14:31.049Z,58.50
2018-09-06T22:16:33.111Z,62.80
2018-09-06T22:18:35.188Z,54.90
2018-09-06T22:20:37.253Z,60.00
2018-09-06T22:22:39.308Z,61.43
2018-09-06T22:24:41.833Z,59.70
2018-09-06T22:26:43.868Z,66.80
2018-09-06T22:28:45.938Z,54.40
2018-09-06T22:30:47.990Z,66.13
2018-09-06T22:32:50.032Z,56.70
2018-09-06T22:34:52.105Z,64.37
2018-09-06T22:36:54.183Z,64.27
2018-09-06T22:38:56.233Z,73.73
2018-09-06T22:40:58.282Z,55.93
2018-09-06T22:43:00.333Z,57.90
2018-09-06T22:45:02.386Z,70.30
2018-09-06T22:47:04.497Z,58.60
2018-09-06T22:49:06.577Z,58.50
2018-09-06T22:51:08.648Z,54.83
2018-09-06T22:53:10.714Z,51.70
2018-09-06T22:55:12.852Z,59.17
2018-09-06T22:57:14.922Z,64.90
2018-09-06T22:59:17.009Z,77.17
2018-09-06T23:01:19.084Z,68.07
2018-09-06T23:03:26.924Z,91.80
2018-09-06T23:05:28.971Z,68.73
2018-09-06T23:07:31.050Z,71.70
2018-09-06T23:09:33.191Z,69.67
2018-09-06T23:11:35.287Z,70.50
2018-09-06T23:13:37.340Z,72.60
2018-09-06T23:15:39.397Z,66.13
2018-09-06T23:17:41.438Z,65.07
2018-09-06T23:19:43.489Z,67.60
2018-09-06T23:21:45.553Z,65.47
2018-09-06T23:23:47.652Z,66.10
2018-09-06T23:25:49.707Z,71.30
2018-09-06T23:27:51.785Z,68.50
2018-09-06T23:29:54.777Z,71.53
2018-09-06T23:31:56.876Z,75.13
2018-09-06T23:33:58.941Z,67.13
2018-09-06T23:36:00.990Z,61.10
2018-09-06T23:38:03.073Z,64.00
2018-09-06T23:40:05.134Z,62.93
2018-09-06T23:42:07.493Z,59.23
2018-09-06T23:44:09.537Z,63.93
2018-09-06T23:46:11.609Z,66.50
2018-09-06T23:48:13.893Z,69.43
2018-09-06T23:50:15.998Z,62.40
2018-09-06T23:52:19.226Z,70.60
2018-09-06T23:54:21.885Z,63.23
2018-09-06T23:56:23.957Z,59.70
2018-09-06T23:58:26.086Z,59.63
